sensor_id;sensor_type;location;lat;lon;timestamp;pressure;altitude;pressure_sealevel;temperature;humidity
28797;BME280;24974;54.444;18.560;2023-04-20T00:00:06;102031.66;;;11.88;60.80
28797;BME280;24974;54.444;18.560;2023-04-20T00:02:43;102020.19;;;11.66;61.41
28797;BME280;24974;54.444;18.560;2023-04-20T00:05:14;102033.53;;;11.98;60.42
28797;BME280;24974;54.444;18.560;2023-04-20T00:07:45;102020.25;;;11.56;60.88
28797;BME280;24974;54.444;18.560;2023-04-20T00:10:18;102016.44;;;11.46;61.66
28797;BME280;24974;54.444;18.560;2023-04-20T00:12:48;102023.56;;;12.02;59.95
28797;BME280;24974;54.444;18.560;2023-04-20T00:15:19;102025.34;;;11.88;60.18
28797;BME280;24974;54.444;18.560;2023-04-20T00:17:50;102033.22;;;11.99;59.80
28797;BME280;24974;54.444;18.560;2023-04-20T00:20:21;102027.22;;;11.92;59.79
28797;BME280;24974;54.444;18.560;2023-04-20T00:22:52;102029.97;;;11.92;59.76
28797;BME280;24974;54.444;18.560;2023-04-20T00:25:23;102023.75;;;12.16;59.07
28797;BME280;24974;54.444;18.560;2023-04-20T00:27:54;102029.22;;;12.21;58.74
28797;BME280;24974;54.444;18.560;2023-04-20T00:30:25;102022.94;;;11.66;60.14
28797;BME280;24974;54.444;18.560;2023-04-20T00:32:56;102017.38;;;11.81;59.92
28797;BME280;24974;54.444;18.560;2023-04-20T00:35:27;102029.41;;;11.95;58.47
28797;BME280;24974;54.444;18.560;2023-04-20T00:37:58;102015.47;;;12.16;57.79
28797;BME280;24974;54.444;18.560;2023-04-20T00:40:29;102017.81;;;12.32;57.16
28797;BME280;24974;54.444;18.560;2023-04-20T00:43:10;102022.75;;;12.36;57.17
28797;BME280;24974;54.444;18.560;2023-04-20T00:45:41;102010.31;;;11.60;60.45
28797;BME280;24974;54.444;18.560;2023-04-20T00:48:13;102018.34;;;11.51;60.94
28797;BME280;24974;54.444;18.560;2023-04-20T00:50:48;102020.66;;;11.78;59.75
28797;BME280;24974;54.444;18.560;2023-04-20T00:53:19;102015.50;;;11.71;60.59
28797;BME280;24974;54.444;18.560;2023-04-20T00:55:52;102018.72;;;11.89;60.09
28797;BME280;24974;54.444;18.560;2023-04-20T00:58:23;102019.31;;;11.75;60.37
28797;BME280;24974;54.444;18.560;2023-04-20T01:00:55;102018.41;;;11.95;59.94
28797;BME280;24974;54.444;18.560;2023-04-20T01:03:26;102022.19;;;12.04;59.45
28797;BME280;24974;54.444;18.560;2023-04-20T01:05:57;102009.34;;;11.90;60.11
28797;BME280;24974;54.444;18.560;2023-04-20T01:08:28;102016.56;;;11.81;60.76
28797;BME280;24974;54.444;18.560;2023-04-20T01:10:59;102015.66;;;11.31;61.01
28797;BME280;24974;54.444;18.560;2023-04-20T01:13:30;102013.88;;;11.65;59.62
28797;BME280;24974;54.444;18.560;2023-04-20T01:16:02;102015.53;;;11.61;59.04
28797;BME280;24974;54.444;18.560;2023-04-20T01:18:49;102016.63;;;11.65;58.69
28797;BME280;24974;54.444;18.560;2023-04-20T01:21:20;102016.84;;;11.74;58.16
28797;BME280;24974;54.444;18.560;2023-04-20T01:23:51;102017.97;;;11.68;57.56
28797;BME280;24974;54.444;18.560;2023-04-20T01:26:23;102020.94;;;11.76;57.12
28797;BME280;24974;54.444;18.560;2023-04-20T01:28:54;102014.75;;;11.56;57.58
28797;BME280;24974;54.444;18.560;2023-04-20T01:31:25;102013.78;;;11.21;58.19
28797;BME280;24974;54.444;18.560;2023-04-20T01:33:56;102014.53;;;11.47;57.33
28797;BME280;24974;54.444;18.560;2023-04-20T01:36:27;102013.66;;;11.52;57.30
28797;BME280;24974;54.444;18.560;2023-04-20T01:38:58;102011.25;;;11.40;57.47
28797;BME280;24974;54.444;18.560;2023-04-20T01:41:32;102009.34;;;11.30;57.63
28797;BME280;24974;54.444;18.560;2023-04-20T01:44:03;102013.97;;;11.45;57.00
28797;BME280;24974;54.444;18.560;2023-04-20T01:46:38;102010.38;;;11.44;56.99
28797;BME280;24974;54.444;18.560;2023-04-20T01:49:11;102011.84;;;11.27;57.71
28797;BME280;24974;54.444;18.560;2023-04-20T01:51:41;102015.53;;;11.02;58.16
28797;BME280;24974;54.444;18.560;2023-04-20T01:54:12;102010.06;;;10.91;58.36
28797;BME280;24974;54.444;18.560;2023-04-20T01:56:43;102010.03;;;11.02;58.50
28797;BME280;24974;54.444;18.560;2023-04-20T01:59:14;102011.63;;;11.13;58.00
28797;BME280;24974;54.444;18.560;2023-04-20T02:01:45;102016.94;;;10.89;58.56
28797;BME280;24974;54.444;18.560;2023-04-20T02:04:15;102018.34;;;10.71;59.01
28797;BME280;24974;54.444;18.560;2023-04-20T02:06:46;102010.34;;;10.80;58.78
28797;BME280;24974;54.444;18.560;2023-04-20T02:09:17;102013.94;;;10.65;59.38
28797;BME280;24974;54.444;18.560;2023-04-20T02:11:48;102019.78;;;10.43;59.93
28797;BME280;24974;54.444;18.560;2023-04-20T02:14:19;102022.47;;;10.58;59.77
28797;BME280;24974;54.444;18.560;2023-04-20T02:16:51;102015.84;;;10.85;58.84
28797;BME280;24974;54.444;18.560;2023-04-20T02:19:22;102023.28;;;10.74;59.32
28797;BME280;24974;54.444;18.560;2023-04-20T02:21:53;102027.09;;;10.93;58.55
28797;BME280;24974;54.444;18.560;2023-04-20T02:24:24;102024.69;;;10.61;59.28
28797;BME280;24974;54.444;18.560;2023-04-20T02:26:55;102024.72;;;10.31;60.51
28797;BME280;24974;54.444;18.560;2023-04-20T02:29:26;102018.91;;;10.63;59.46
28797;BME280;24974;54.444;18.560;2023-04-20T02:31:57;102023.88;;;10.61;60.09
28797;BME280;24974;54.444;18.560;2023-04-20T02:34:28;102024.13;;;10.49;60.19
28797;BME280;24974;54.444;18.560;2023-04-20T02:37:00;102022.78;;;10.47;60.41
28797;BME280;24974;54.444;18.560;2023-04-20T02:39:31;102023.06;;;10.60;59.71
28797;BME280;24974;54.444;18.560;2023-04-20T02:42:02;102023.88;;;10.56;59.84
28797;BME280;24974;54.444;18.560;2023-04-20T02:44:33;102020.53;;;10.18;60.76
28797;BME280;24974;54.444;18.560;2023-04-20T02:47:05;102014.22;;;10.58;59.93
28797;BME280;24974;54.444;18.560;2023-04-20T02:49:36;102018.94;;;10.43;60.00
28797;BME280;24974;54.444;18.560;2023-04-20T02:52:07;102023.59;;;10.47;59.95
28797;BME280;24974;54.444;18.560;2023-04-20T02:54:38;102023.06;;;10.45;59.89
28797;BME280;24974;54.444;18.560;2023-04-20T02:57:08;102015.63;;;10.56;59.50
28797;BME280;24974;54.444;18.560;2023-04-20T02:59:41;102015.03;;;10.74;58.87
28797;BME280;24974;54.444;18.560;2023-04-20T03:02:20;102016.16;;;10.58;59.53
28797;BME280;24974;54.444;18.560;2023-04-20T03:04:51;102031.84;;;10.42;60.17
28797;BME280;24974;54.444;18.560;2023-04-20T03:07:24;102023.06;;;10.60;59.49
28797;BME280;24974;54.444;18.560;2023-04-20T03:09:56;102030.69;;;10.74;59.08
28797;BME280;24974;54.444;18.560;2023-04-20T03:12:45;102037.63;;;10.46;59.47
28797;BME280;24974;54.444;18.560;2023-04-20T03:15:32;102030.22;;;10.36;59.54
28797;BME280;24974;54.444;18.560;2023-04-20T03:18:08;102027.16;;;10.63;59.46
28797;BME280;24974;54.444;18.560;2023-04-20T03:20:40;102029.91;;;10.12;60.87
28797;BME280;24974;54.444;18.560;2023-04-20T03:23:11;102037.81;;;9.83;61.58
28797;BME280;24974;54.444;18.560;2023-04-20T03:25:42;102031.25;;;9.99;61.29
28797;BME280;24974;54.444;18.560;2023-04-20T03:28:41;102044.13;;;9.94;61.18
28797;BME280;24974;54.444;18.560;2023-04-20T03:31:14;102043.06;;;10.10;61.01
28797;BME280;24974;54.444;18.560;2023-04-20T03:33:46;102030.19;;;10.21;60.64
28797;BME280;24974;54.444;18.560;2023-04-20T03:36:16;102028.25;;;10.11;60.71
28797;BME280;24974;54.444;18.560;2023-04-20T03:38:47;102041.47;;;10.60;59.24
28797;BME280;24974;54.444;18.560;2023-04-20T03:41:18;102039.00;;;10.48;59.60
28797;BME280;24974;54.444;18.560;2023-04-20T03:43:49;102036.53;;;10.36;60.19
28797;BME280;24974;54.444;18.560;2023-04-20T03:46:20;102043.94;;;10.56;59.42
28797;BME280;24974;54.444;18.560;2023-04-20T03:48:51;102047.50;;;10.47;59.65
28797;BME280;24974;54.444;18.560;2023-04-20T03:51:22;102040.66;;;10.39;60.12
28797;BME280;24974;54.444;18.560;2023-04-20T03:53:52;102038.44;;;10.56;59.56
28797;BME280;24974;54.444;18.560;2023-04-20T03:56:23;102041.47;;;10.24;60.36
28797;BME280;24974;54.444;18.560;2023-04-20T03:58:57;102041.97;;;10.06;60.94
28797;BME280;24974;54.444;18.560;2023-04-20T04:01:30;102041.47;;;10.24;60.30
28797;BME280;24974;54.444;18.560;2023-04-20T04:04:01;102041.28;;;9.48;62.78
28797;BME280;24974;54.444;18.560;2023-04-20T04:06:32;102045.16;;;9.62;62.49
28797;BME280;24974;54.444;18.560;2023-04-20T04:09:03;102053.50;;;10.18;61.02
28797;BME280;24974;54.444;18.560;2023-04-20T04:11:34;102053.41;;;9.67;62.19
28797;BME280;24974;54.444;18.560;2023-04-20T04:14:06;102057.59;;;9.90;61.64
28797;BME280;24974;54.444;18.560;2023-04-20T04:16:39;102052.38;;;9.94;61.25
28797;BME280;24974;54.444;18.560;2023-04-20T04:19:10;102055.22;;;10.29;60.48
28797;BME280;24974;54.444;18.560;2023-04-20T04:21:41;102064.28;;;10.30;60.65
28797;BME280;24974;54.444;18.560;2023-04-20T04:24:13;102055.75;;;10.42;60.11
28797;BME280;24974;54.444;18.560;2023-04-20T04:27:04;102054.13;;;10.46;60.11
28797;BME280;24974;54.444;18.560;2023-04-20T04:29:38;102057.41;;;10.48;60.15
28797;BME280;24974;54.444;18.560;2023-04-20T04:32:14;102059.31;;;10.57;60.00
28797;BME280;24974;54.444;18.560;2023-04-20T04:34:45;102060.19;;;10.43;60.29
28797;BME280;24974;54.444;18.560;2023-04-20T04:37:18;102066.75;;;10.62;59.69
28797;BME280;24974;54.444;18.560;2023-04-20T04:39:53;102075.25;;;10.65;59.79
28797;BME280;24974;54.444;18.560;2023-04-20T04:42:33;102069.91;;;11.30;58.22
28797;BME280;24974;54.444;18.560;2023-04-20T04:45:07;102067.22;;;11.15;58.17
28797;BME280;24974;54.444;18.560;2023-04-20T04:47:41;102072.75;;;11.69;57.49
28797;BME280;24974;54.444;18.560;2023-04-20T04:50:13;102076.53;;;11.24;57.99
28797;BME280;24974;54.444;18.560;2023-04-20T04:52:44;102078.19;;;11.90;56.32
28797;BME280;24974;54.444;18.560;2023-04-20T04:55:15;102084.47;;;12.00;56.03
28797;BME280;24974;54.444;18.560;2023-04-20T04:57:46;102074.81;;;11.43;57.25
28797;BME280;24974;54.444;18.560;2023-04-20T05:00:17;102069.97;;;11.85;56.38
28797;BME280;24974;54.444;18.560;2023-04-20T05:02:48;102072.56;;;11.56;57.24
28797;BME280;24974;54.444;18.560;2023-04-20T05:05:19;102071.59;;;11.86;56.28
28797;BME280;24974;54.444;18.560;2023-04-20T05:07:51;102067.41;;;11.98;55.77
28797;BME280;24974;54.444;18.560;2023-04-20T05:10:22;102082.84;;;11.94;55.39
28797;BME280;24974;54.444;18.560;2023-04-20T05:12:52;102080.56;;;12.07;54.99
28797;BME280;24974;54.444;18.560;2023-04-20T05:15:23;102085.81;;;12.03;55.10
28797;BME280;24974;54.444;18.560;2023-04-20T05:17:54;102085.25;;;12.06;55.28
28797;BME280;24974;54.444;18.560;2023-04-20T05:20:25;102088.69;;;12.27;54.54
28797;BME280;24974;54.444;18.560;2023-04-20T05:22:56;102083.84;;;12.48;53.84
28797;BME280;24974;54.444;18.560;2023-04-20T05:25:27;102093.03;;;12.38;54.50
28797;BME280;24974;54.444;18.560;2023-04-20T05:27:58;102093.31;;;12.37;54.37
28797;BME280;24974;54.444;18.560;2023-04-20T05:30:29;102097.34;;;12.49;54.28
28797;BME280;24974;54.444;18.560;2023-04-20T05:32:59;102095.66;;;12.19;54.82
28797;BME280;24974;54.444;18.560;2023-04-20T05:35:30;102097.19;;;12.36;54.51
28797;BME280;24974;54.444;18.560;2023-04-20T05:38:01;102096.69;;;12.28;54.78
28797;BME280;24974;54.444;18.560;2023-04-20T05:40:35;102100.22;;;12.34;54.45
28797;BME280;24974;54.444;18.560;2023-04-20T05:43:06;102101.00;;;13.03;52.89
28797;BME280;24974;54.444;18.560;2023-04-20T05:45:38;102098.41;;;12.87;52.42
28797;BME280;24974;54.444;18.560;2023-04-20T05:48:08;102100.38;;;12.53;53.68
28797;BME280;24974;54.444;18.560;2023-04-20T05:50:40;102108.94;;;13.09;52.31
28797;BME280;24974;54.444;18.560;2023-04-20T05:53:11;102110.03;;;12.84;52.82
28797;BME280;24974;54.444;18.560;2023-04-20T05:55:42;102115.31;;;12.47;53.75
28797;BME280;24974;54.444;18.560;2023-04-20T05:58:13;102117.72;;;13.16;51.89
28797;BME280;24974;54.444;18.560;2023-04-20T06:00:45;102112.97;;;13.22;51.63
28797;BME280;24974;54.444;18.560;2023-04-20T06:03:16;102114.38;;;13.20;51.84
28797;BME280;24974;54.444;18.560;2023-04-20T06:05:47;102117.78;;;13.06;51.58
28797;BME280;24974;54.444;18.560;2023-04-20T06:08:17;102124.06;;;13.17;51.36
28797;BME280;24974;54.444;18.560;2023-04-20T06:10:54;102123.16;;;13.27;50.85
28797;BME280;24974;54.444;18.560;2023-04-20T06:13:26;102131.84;;;13.10;51.48
28797;BME280;24974;54.444;18.560;2023-04-20T06:15:57;102128.56;;;13.08;51.85
28797;BME280;24974;54.444;18.560;2023-04-20T06:18:28;102126.72;;;12.98;52.19
28797;BME280;24974;54.444;18.560;2023-04-20T06:20:59;102128.66;;;12.69;52.39
28797;BME280;24974;54.444;18.560;2023-04-20T06:23:31;102127.81;;;12.97;51.54
28797;BME280;24974;54.444;18.560;2023-04-20T06:26:03;102124.88;;;12.88;52.01
28797;BME280;24974;54.444;18.560;2023-04-20T06:28:34;102135.00;;;13.27;51.28
28797;BME280;24974;54.444;18.560;2023-04-20T06:31:06;102135.06;;;13.22;51.35
28797;BME280;24974;54.444;18.560;2023-04-20T06:33:37;102134.72;;;13.00;51.51
28797;BME280;24974;54.444;18.560;2023-04-20T06:36:07;102134.44;;;13.01;51.84
28797;BME280;24974;54.444;18.560;2023-04-20T06:38:38;102134.09;;;12.74;52.23
28797;BME280;24974;54.444;18.560;2023-04-20T06:41:10;102141.47;;;13.12;51.67
28797;BME280;24974;54.444;18.560;2023-04-20T06:43:41;102140.25;;;13.29;50.73
28797;BME280;24974;54.444;18.560;2023-04-20T06:46:12;102141.50;;;13.41;50.87
28797;BME280;24974;54.444;18.560;2023-04-20T06:48:42;102138.13;;;13.44;50.87
28797;BME280;24974;54.444;18.560;2023-04-20T06:51:13;102141.41;;;13.47;50.71
28797;BME280;24974;54.444;18.560;2023-04-20T06:53:44;102141.13;;;13.24;51.55
28797;BME280;24974;54.444;18.560;2023-04-20T06:56:15;102146.59;;;13.29;51.58
28797;BME280;24974;54.444;18.560;2023-04-20T06:58:46;102146.84;;;13.33;51.27
28797;BME280;24974;54.444;18.560;2023-04-20T07:01:17;102150.00;;;13.69;50.58
28797;BME280;24974;54.444;18.560;2023-04-20T07:03:48;102150.94;;;13.59;50.82
28797;BME280;24974;54.444;18.560;2023-04-20T07:06:19;102156.31;;;13.22;51.76
28797;BME280;24974;54.444;18.560;2023-04-20T07:08:50;102158.59;;;13.43;51.09
28797;BME280;24974;54.444;18.560;2023-04-20T07:11:23;102162.00;;;13.35;51.08
28797;BME280;24974;54.444;18.560;2023-04-20T07:13:54;102167.66;;;13.49;50.94
28797;BME280;24974;54.444;18.560;2023-04-20T07:16:24;102168.69;;;13.53;51.02
28797;BME280;24974;54.444;18.560;2023-04-20T07:18:55;102168.38;;;13.79;50.60
28797;BME280;24974;54.444;18.560;2023-04-20T07:21:26;102174.56;;;13.70;51.45
28797;BME280;24974;54.444;18.560;2023-04-20T07:23:57;102177.91;;;13.43;51.05
28797;BME280;24974;54.444;18.560;2023-04-20T07:26:28;102181.72;;;13.24;51.88
28797;BME280;24974;54.444;18.560;2023-04-20T07:28:59;102173.91;;;13.55;51.05
28797;BME280;24974;54.444;18.560;2023-04-20T07:31:30;102182.28;;;13.97;50.20
28797;BME280;24974;54.444;18.560;2023-04-20T07:34:01;102178.53;;;13.64;50.45
28797;BME280;24974;54.444;18.560;2023-04-20T07:36:32;102184.22;;;13.49;51.42
28797;BME280;24974;54.444;18.560;2023-04-20T07:39:03;102180.31;;;13.98;49.89
28797;BME280;24974;54.444;18.560;2023-04-20T07:41:35;102176.00;;;14.11;49.97
28797;BME280;24974;54.444;18.560;2023-04-20T07:44:06;102176.84;;;14.30;49.23
28797;BME280;24974;54.444;18.560;2023-04-20T07:46:37;102173.31;;;14.24;49.64
28797;BME280;24974;54.444;18.560;2023-04-20T07:49:07;102178.34;;;14.41;49.22
28797;BME280;24974;54.444;18.560;2023-04-20T07:51:38;102181.34;;;14.02;49.60
28797;BME280;24974;54.444;18.560;2023-04-20T07:54:09;102173.72;;;14.55;48.68
28797;BME280;24974;54.444;18.560;2023-04-20T07:56:40;102180.13;;;14.32;49.81
28797;BME280;24974;54.444;18.560;2023-04-20T07:59:11;102180.97;;;14.51;48.92
28797;BME280;24974;54.444;18.560;2023-04-20T08:01:42;102181.78;;;14.14;49.87
28797;BME280;24974;54.444;18.560;2023-04-20T08:04:12;102182.22;;;14.40;48.54
28797;BME280;24974;54.444;18.560;2023-04-20T08:06:43;102184.53;;;14.33;49.50
28797;BME280;24974;54.444;18.560;2023-04-20T08:09:14;102182.06;;;14.32;48.82
28797;BME280;24974;54.444;18.560;2023-04-20T08:11:45;102186.38;;;14.19;49.22
28797;BME280;24974;54.444;18.560;2023-04-20T08:14:16;102189.78;;;14.72;48.03
28797;BME280;24974;54.444;18.560;2023-04-20T08:16:47;102193.25;;;14.64;48.02
28797;BME280;24974;54.444;18.560;2023-04-20T08:19:18;102186.63;;;14.41;48.83
28797;BME280;24974;54.444;18.560;2023-04-20T08:21:50;102193.50;;;14.25;48.66
28797;BME280;24974;54.444;18.560;2023-04-20T08:24:21;102190.25;;;14.61;47.91
28797;BME280;24974;54.444;18.560;2023-04-20T08:26:52;102196.75;;;14.70;47.48
28797;BME280;24974;54.444;18.560;2023-04-20T08:29:23;102193.31;;;14.78;47.44
28797;BME280;24974;54.444;18.560;2023-04-20T08:31:53;102196.03;;;15.29;46.37
28797;BME280;24974;54.444;18.560;2023-04-20T08:34:24;102188.75;;;15.47;46.16
28797;BME280;24974;54.444;18.560;2023-04-20T08:36:55;102192.13;;;15.30;46.02
28797;BME280;24974;54.444;18.560;2023-04-20T08:39:26;102193.13;;;14.88;45.91
28797;BME280;24974;54.444;18.560;2023-04-20T08:41:57;102185.34;;;14.90;46.54
28797;BME280;24974;54.444;18.560;2023-04-20T08:44:28;102190.25;;;15.12;45.76
28797;BME280;24974;54.444;18.560;2023-04-20T08:46:59;102194.34;;;14.82;46.45
28797;BME280;24974;54.444;18.560;2023-04-20T08:49:30;102191.88;;;16.14;44.29
28797;BME280;24974;54.444;18.560;2023-04-20T08:52:02;102189.53;;;15.66;45.37
28797;BME280;24974;54.444;18.560;2023-04-20T08:54:33;102199.69;;;16.12;43.93
28797;BME280;24974;54.444;18.560;2023-04-20T08:57:03;102197.00;;;16.21;44.09
28797;BME280;24974;54.444;18.560;2023-04-20T08:59:36;102192.34;;;16.66;43.31
28797;BME280;24974;54.444;18.560;2023-04-20T09:02:11;102200.34;;;16.45;43.80
28797;BME280;24974;54.444;18.560;2023-04-20T09:04:42;102196.50;;;16.69;43.35
28797;BME280;24974;54.444;18.560;2023-04-20T09:07:18;102203.53;;;16.39;43.98
28797;BME280;24974;54.444;18.560;2023-04-20T09:09:53;102194.81;;;16.32;43.61
28797;BME280;24974;54.444;18.560;2023-04-20T09:12:26;102188.06;;;16.10;44.07
28797;BME280;24974;54.444;18.560;2023-04-20T09:14:56;102196.75;;;16.67;43.17
28797;BME280;24974;54.444;18.560;2023-04-20T09:17:32;102190.91;;;17.14;41.84
28797;BME280;24974;54.444;18.560;2023-04-20T09:20:03;102197.44;;;16.87;42.32
28797;BME280;24974;54.444;18.560;2023-04-20T09:22:37;102199.69;;;17.60;41.46
28797;BME280;24974;54.444;18.560;2023-04-20T09:25:15;102198.56;;;17.08;41.83
28797;BME280;24974;54.444;18.560;2023-04-20T09:27:59;102198.69;;;17.03;41.78
28797;BME280;24974;54.444;18.560;2023-04-20T09:30:39;102207.06;;;16.31;42.84
28797;BME280;24974;54.444;18.560;2023-04-20T09:33:11;102197.94;;;17.11;42.62
28797;BME280;24974;54.444;18.560;2023-04-20T09:35:44;102212.44;;;17.30;42.22
28797;BME280;24974;54.444;18.560;2023-04-20T09:38:16;102201.81;;;17.01;41.95
28797;BME280;24974;54.444;18.560;2023-04-20T09:40:47;102200.91;;;16.56;43.59
28797;BME280;24974;54.444;18.560;2023-04-20T09:43:21;102203.44;;;17.02;43.32
28797;BME280;24974;54.444;18.560;2023-04-20T09:45:54;102202.09;;;16.28;43.22
28797;BME280;24974;54.444;18.560;2023-04-20T09:48:25;102213.81;;;17.42;41.94
28797;BME280;24974;54.444;18.560;2023-04-20T09:50:56;102221.84;;;17.43;42.45
28797;BME280;24974;54.444;18.560;2023-04-20T09:53:29;102214.56;;;18.04;42.34
28797;BME280;24974;54.444;18.560;2023-04-20T09:56:00;102221.38;;;17.50;42.00
28797;BME280;24974;54.444;18.560;2023-04-20T09:58:32;102214.75;;;17.99;41.57
28797;BME280;24974;54.444;18.560;2023-04-20T10:01:09;102222.72;;;17.92;41.21
28797;BME280;24974;54.444;18.560;2023-04-20T10:03:41;102215.97;;;17.22;41.43
28797;BME280;24974;54.444;18.560;2023-04-20T10:06:19;102213.13;;;17.67;41.06
28797;BME280;24974;54.444;18.560;2023-04-20T10:08:51;102217.78;;;18.37;40.81
28797;BME280;24974;54.444;18.560;2023-04-20T10:11:35;102217.50;;;17.91;41.31
28797;BME280;24974;54.444;18.560;2023-04-20T10:17:07;102211.78;;;18.70;40.14
28797;BME280;24974;54.444;18.560;2023-04-20T10:19:40;102214.84;;;19.12;39.61
28797;BME280;24974;54.444;18.560;2023-04-20T10:22:24;102215.19;;;19.74;38.49
28797;BME280;24974;54.444;18.560;2023-04-20T10:24:55;102208.91;;;19.22;39.79
28797;BME280;24974;54.444;18.560;2023-04-20T10:27:26;102200.41;;;19.18;39.77
28797;BME280;24974;54.444;18.560;2023-04-20T10:30:10;102210.94;;;18.78;40.49
28797;BME280;24974;54.444;18.560;2023-04-20T10:32:41;102195.03;;;18.87;40.35
28797;BME280;24974;54.444;18.560;2023-04-20T10:35:12;102200.38;;;19.82;38.77
28797;BME280;24974;54.444;18.560;2023-04-20T10:37:50;102196.72;;;20.83;37.19
28797;BME280;24974;54.444;18.560;2023-04-20T10:40:25;102189.03;;;21.46;35.73
28797;BME280;24974;54.444;18.560;2023-04-20T10:42:58;102197.13;;;21.27;35.48
28797;BME280;24974;54.444;18.560;2023-04-20T10:45:36;102192.75;;;21.38;35.32
28797;BME280;24974;54.444;18.560;2023-04-20T10:48:10;102185.16;;;21.38;34.80
28797;BME280;24974;54.444;18.560;2023-04-20T10:50:41;102186.50;;;22.14;33.89
28797;BME280;24974;54.444;18.560;2023-04-20T10:53:22;102184.59;;;22.30;33.60
28797;BME280;24974;54.444;18.560;2023-04-20T10:55:57;102182.34;;;22.36;33.95
28797;BME280;24974;54.444;18.560;2023-04-20T10:58:28;102175.16;;;21.37;34.59
28797;BME280;24974;54.444;18.560;2023-04-20T11:01:01;102187.88;;;21.71;34.76
28797;BME280;24974;54.444;18.560;2023-04-20T11:03:32;102181.09;;;22.21;34.11
28797;BME280;24974;54.444;18.560;2023-04-20T11:06:04;102185.31;;;21.54;34.38
28797;BME280;24974;54.444;18.560;2023-04-20T11:08:36;102173.91;;;21.84;34.36
28797;BME280;24974;54.444;18.560;2023-04-20T11:11:22;102186.94;;;22.28;33.70
28797;BME280;24974;54.444;18.560;2023-04-20T11:14:09;102181.81;;;21.45;34.84
28797;BME280;24974;54.444;18.560;2023-04-20T11:16:50;102181.38;;;21.22;35.49
28797;BME280;24974;54.444;18.560;2023-04-20T11:19:26;102177.13;;;20.50;36.27
28797;BME280;24974;54.444;18.560;2023-04-20T11:21:58;102181.25;;;21.76;34.46
28797;BME280;24974;54.444;18.560;2023-04-20T11:24:30;102186.88;;;20.98;36.12
28797;BME280;24974;54.444;18.560;2023-04-20T11:27:03;102188.97;;;20.88;35.56
28797;BME280;24974;54.444;18.560;2023-04-20T11:29:35;102183.78;;;21.44;34.89
28797;BME280;24974;54.444;18.560;2023-04-20T11:32:09;102186.69;;;21.36;35.32
28797;BME280;24974;54.444;18.560;2023-04-20T11:34:40;102184.91;;;20.98;35.09
28797;BME280;24974;54.444;18.560;2023-04-20T11:37:11;102196.47;;;21.09;34.32
28797;BME280;24974;54.444;18.560;2023-04-20T11:39:44;102195.88;;;20.70;35.25
28797;BME280;24974;54.444;18.560;2023-04-20T11:42:16;102188.88;;;20.14;36.74
28797;BME280;24974;54.444;18.560;2023-04-20T11:44:47;102190.63;;;20.48;36.22
28797;BME280;24974;54.444;18.560;2023-04-20T11:47:18;102189.94;;;20.51;36.03
28797;BME280;24974;54.444;18.560;2023-04-20T11:49:48;102178.78;;;19.62;37.12
28797;BME280;24974;54.444;18.560;2023-04-20T11:52:20;102178.53;;;20.35;36.04
28797;BME280;24974;54.444;18.560;2023-04-20T11:54:50;102179.84;;;20.58;35.44
28797;BME280;24974;54.444;18.560;2023-04-20T11:57:21;102181.25;;;21.18;34.10
28797;BME280;24974;54.444;18.560;2023-04-20T11:59:53;102184.03;;;21.64;34.64
28797;BME280;24974;54.444;18.560;2023-04-20T12:02:24;102186.53;;;21.32;35.15
28797;BME280;24974;54.444;18.560;2023-04-20T12:04:54;102189.38;;;21.81;33.40
28797;BME280;24974;54.444;18.560;2023-04-20T12:07:25;102186.78;;;21.39;34.66
28797;BME280;24974;54.444;18.560;2023-04-20T12:09:56;102190.47;;;20.86;34.97
28797;BME280;24974;54.444;18.560;2023-04-20T12:12:27;102185.38;;;20.67;34.50
28797;BME280;24974;54.444;18.560;2023-04-20T12:14:57;102200.03;;;22.24;32.70
28797;BME280;24974;54.444;18.560;2023-04-20T12:17:28;102194.53;;;21.91;33.20
28797;BME280;24974;54.444;18.560;2023-04-20T12:19:59;102188.94;;;21.21;32.80
28797;BME280;24974;54.444;18.560;2023-04-20T12:22:30;102189.72;;;22.41;31.67
28797;BME280;24974;54.444;18.560;2023-04-20T12:25:00;102189.28;;;21.53;32.16
28797;BME280;24974;54.444;18.560;2023-04-20T12:27:31;102186.59;;;21.69;32.02
28797;BME280;24974;54.444;18.560;2023-04-20T12:30:03;102187.31;;;22.15;32.40
28797;BME280;24974;54.444;18.560;2023-04-20T12:32:34;102188.97;;;22.56;30.94
28797;BME280;24974;54.444;18.560;2023-04-20T12:35:05;102179.00;;;21.82;33.01
28797;BME280;24974;54.444;18.560;2023-04-20T12:37:37;102181.97;;;22.62;31.12
28797;BME280;24974;54.444;18.560;2023-04-20T12:40:08;102182.72;;;22.34;31.47
28797;BME280;24974;54.444;18.560;2023-04-20T12:42:39;102169.38;;;23.28;29.88
28797;BME280;24974;54.444;18.560;2023-04-20T12:45:10;102179.78;;;23.11;29.86
28797;BME280;24974;54.444;18.560;2023-04-20T12:47:41;102163.06;;;21.70;31.56
28797;BME280;24974;54.444;18.560;2023-04-20T12:50:12;102162.06;;;23.39;30.10
28797;BME280;24974;54.444;18.560;2023-04-20T12:52:42;102162.31;;;23.81;29.60
28797;BME280;24974;54.444;18.560;2023-04-20T12:55:13;102163.47;;;23.17;30.52
28797;BME280;24974;54.444;18.560;2023-04-20T12:57:44;102165.31;;;22.41;31.18
28797;BME280;24974;54.444;18.560;2023-04-20T13:00:15;102151.97;;;23.06;30.03
28797;BME280;24974;54.444;18.560;2023-04-20T13:02:46;102158.06;;;23.40;29.78
28797;BME280;24974;54.444;18.560;2023-04-20T13:05:17;102155.00;;;22.85;30.35
28797;BME280;24974;54.444;18.560;2023-04-20T13:07:49;102153.72;;;21.90;31.14